Check out our new BloomSky Weather System.

Active alerts

Houston, TX
  Details for Houston, TX Dense Fog Advisory


Thunder radar  blitzortung!


Rain radar more information rain snow radar


Visit our other weather sites:

Template documentation
and downloads

And another site



Weather Underground History page Text

Daily Summary for April 7, 2017 Units:  English    Metric   Both
« Previous Day
Next Day »
Daily Weekly Monthly Yearly Custom
  High: Low: Average:
Temperature: 81.5 °F 49.6 °F 67.1 °F
Dew Point: 57.9 °F 46.8 °F 50.6 °F
Humidity: 94 % 30 % 60 %
Wind Speed: 8.0 mph 0.0 mph 1.4 mph
Wind Gust: 11.0 mph - -
Wind:- - South
Pressure: 30.26 in 30.09 in -
Precipitation: 0.00 in    
Historical Graphs
 
 
Tabular Data for April 7, 2017
Time Temperature Dew Point Pressure Wind Wind Speed Wind Gust Humidity Rainfall Rate (Hourly)
00:02 56.8 °F 47.5 °F 30.20 in Calm   5.0 mph 71 % 0.00 in
00:12 56.8 °F 47.5 °F 30.21 in Calm   5.0 mph 71 % 0.00 in
00:17 56.5 °F 47.1 °F 30.21 in Calm     71 % 0.00 in
00:22 56.5 °F 47.5 °F 30.21 in Calm     72 % 0.00 in
00:27 56.3 °F 47.5 °F 30.21 in Calm     72 % 0.00 in
00:32 56.1 °F 47.3 °F 30.21 in Calm     72 % 0.00 in
00:37 56.1 °F 47.3 °F 30.21 in Calm     72 % 0.00 in
00:42 56.5 °F 47.5 °F 30.21 in Calm     72 % 0.00 in
00:47 56.5 °F 47.5 °F 30.21 in Calm     72 % 0.00 in
00:52 56.3 °F 47.5 °F 30.21 in Calm     72 % 0.00 in
00:57 56.1 °F 47.7 °F 30.21 in Calm     73 % 0.00 in
01:02 55.9 °F 47.5 °F 30.21 in Calm     73 % 0.00 in
01:07 55.9 °F 47.5 °F 30.21 in Calm     73 % 0.00 in
01:12 55.8 °F 47.3 °F 30.21 in Calm     73 % 0.00 in
01:17 55.2 °F 46.8 °F 30.21 in Calm     73 % 0.00 in
01:22 55.2 °F 47.8 °F 30.21 in Calm     76 % 0.00 in
01:27 55.6 °F 48.2 °F 30.21 in Calm     76 % 0.00 in
01:32 55.6 °F 47.8 °F 30.21 in Calm     75 % 0.00 in
01:37 55.2 °F 47.8 °F 30.21 in Calm     76 % 0.00 in
01:42 55.0 °F 47.7 °F 30.21 in Calm     76 % 0.00 in
01:47 54.9 °F 48.2 °F 30.20 in Calm     78 % 0.00 in
01:52 54.9 °F 48.2 °F 30.20 in Calm     78 % 0.00 in
01:57 54.9 °F 48.6 °F 30.20 in Calm     79 % 0.00 in
02:02 54.7 °F 48.4 °F 30.20 in Calm     79 % 0.00 in
02:07 54.7 °F 48.6 °F 30.20 in Calm     80 % 0.00 in
02:12 54.5 °F 48.4 °F 30.20 in Calm     80 % 0.00 in
02:17 54.3 °F 48.2 °F 30.20 in Calm     80 % 0.00 in
02:22 54.3 °F 48.2 °F 30.20 in Calm     80 % 0.00 in
02:27 54.0 °F 47.7 °F 30.20 in Calm     79 % 0.00 in
02:32 53.6 °F 47.8 °F 30.20 in Calm     81 % 0.00 in
02:37 53.6 °F 48.2 °F 30.20 in Calm     82 % 0.00 in
02:42 53.2 °F 47.5 °F 30.20 in Calm     81 % 0.00 in
02:47 53.1 °F 47.7 °F 30.21 in Calm     82 % 0.00 in
02:52 52.9 °F 47.8 °F 30.21 in Calm     83 % 0.00 in
02:57 52.5 °F 47.8 °F 30.21 in Calm     84 % 0.00 in
03:02 52.5 °F 47.8 °F 30.21 in Calm     84 % 0.00 in
03:07 52.3 °F 48.0 °F 30.21 in Calm     85 % 0.00 in
03:12 52.3 °F 48.0 °F 30.21 in Calm     85 % 0.00 in
03:17 52.2 °F 48.0 °F 30.21 in Calm     86 % 0.00 in
03:22 52.3 °F 48.2 °F 30.21 in Calm     86 % 0.00 in
03:32 52.2 °F 48.0 °F 30.20 in Calm     86 % 0.00 in
03:37 52.2 °F 48.0 °F 30.21 in Calm     86 % 0.00 in
03:42 52.2 °F 48.4 °F 30.21 in Calm     87 % 0.00 in
03:47 52.2 °F 48.4 °F 30.20 in Calm     87 % 0.00 in
03:52 52.0 °F 48.2 °F 30.20 in Calm     87 % 0.00 in
03:57 51.6 °F 47.8 °F 30.20 in Calm     87 % 0.00 in
04:02 51.6 °F 48.2 °F 30.19 in Calm     88 % 0.00 in
04:07 51.6 °F 47.8 °F 30.19 in Calm     87 % 0.00 in
04:12 51.4 °F 47.7 °F 30.19 in Calm     87 % 0.00 in
04:17 51.4 °F 48.0 °F 30.19 in Calm     88 % 0.00 in
04:22 51.3 °F 48.2 °F 30.19 in Calm     89 % 0.00 in
04:27 51.4 °F 48.4 °F 30.19 in Calm     89 % 0.00 in
04:32 51.3 °F 48.2 °F 30.19 in Calm     89 % 0.00 in
04:37 51.4 °F 48.4 °F 30.19 in Calm     89 % 0.00 in
04:42 51.3 °F 48.2 °F 30.19 in Calm     89 % 0.00 in
04:47 51.3 °F 48.2 °F 30.19 in Calm     89 % 0.00 in
04:52 51.3 °F 48.2 °F 30.19 in Calm     89 % 0.00 in
04:57 51.1 °F 48.2 °F 30.18 in Calm     90 % 0.00 in
05:02 51.3 °F 48.4 °F 30.18 in Calm     90 % 0.00 in
05:07 51.3 °F 48.4 °F 30.18 in Calm     90 % 0.00 in
05:12 51.1 °F 48.2 °F 30.18 in Calm     90 % 0.00 in
05:17 51.1 °F 48.6 °F 30.18 in Calm     91 % 0.00 in
05:22 50.9 °F 48.4 °F 30.19 in Calm     91 % 0.00 in
05:27 50.5 °F 48.0 °F 30.19 in Calm     91 % 0.00 in
05:32 50.5 °F 48.4 °F 30.19 in Calm     92 % 0.00 in
05:37 50.5 °F 48.4 °F 30.19 in Calm     92 % 0.00 in
05:42 50.5 °F 48.4 °F 30.19 in Calm     92 % 0.00 in
05:47 50.4 °F 48.2 °F 30.19 in Calm     92 % 0.00 in
05:52 50.4 °F 48.2 °F 30.19 in Calm     92 % 0.00 in
05:57 50.4 °F 48.2 °F 30.19 in Calm     92 % 0.00 in
06:02 50.4 °F 48.2 °F 30.19 in Calm     92 % 0.00 in
06:07 50.5 °F 48.6 °F 30.19 in Calm     93 % 0.00 in
06:12 50.5 °F 48.4 °F 30.20 in Calm   1.0 mph 92 % 0.00 in
06:17 50.5 °F 48.4 °F 30.19 in Calm   1.0 mph 92 % 0.00 in
06:22 50.5 °F 48.4 °F 30.19 in Calm   1.0 mph 92 % 0.00 in
06:27 50.4 °F 48.2 °F 30.19 in Calm   1.0 mph 92 % 0.00 in
06:32 50.2 °F 48.0 °F 30.20 in Calm   1.0 mph 92 % 0.00 in
06:42 50.5 °F 48.6 °F 30.20 in Calm   1.0 mph 93 % 0.00 in
06:47 50.4 °F 48.2 °F 30.20 in Calm   1.0 mph 92 % 0.00 in
06:52 50.2 °F 48.0 °F 30.20 in Calm   1.0 mph 92 % 0.00 in
06:57 50.0 °F 47.8 °F 30.20 in Calm     92 % 0.00 in
07:02 49.6 °F 47.5 °F 30.21 in Calm     92 % 0.00 in
07:07 49.6 °F 47.7 °F 30.21 in Calm     93 % 0.00 in
07:12 50.0 °F 48.0 °F 30.21 in Calm     93 % 0.00 in
07:17 50.2 °F 48.2 °F 30.21 in Calm     93 % 0.00 in
07:22 50.2 °F 48.2 °F 30.22 in Calm     93 % 0.00 in
07:27 50.2 °F 48.2 °F 30.21 in Calm     93 % 0.00 in
07:32 49.8 °F 47.8 °F 30.22 in Calm     93 % 0.00 in
07:37 49.8 °F 47.8 °F 30.22 in Calm     93 % 0.00 in
07:42 50.4 °F 48.7 °F 30.22 in Calm   1.0 mph 94 % 0.00 in
07:47 50.9 °F 49.3 °F 30.22 in Calm   1.0 mph 94 % 0.00 in
07:52 52.0 °F 50.4 °F 30.22 in Calm   1.0 mph 94 % 0.00 in
07:57 53.2 °F 51.6 °F 30.22 in Calm   1.0 mph 94 % 0.00 in
08:02 54.3 °F 52.7 °F 30.22 in Calm     94 % 0.00 in
08:07 54.9 °F 52.9 °F 30.23 in Calm   1.0 mph 93 % 0.00 in
08:12 55.9 °F 53.6 °F 30.23 in Calm   1.0 mph 92 % 0.00 in
08:17 56.7 °F 53.4 °F 30.23 in Calm   1.0 mph 89 % 0.00 in
08:22 57.7 °F 54.5 °F 30.24 in Calm   1.0 mph 89 % 0.00 in
08:27 59.4 °F 55.8 °F 30.24 in Calm   1.0 mph 88 % 0.00 in
08:32 61.0 °F 56.5 °F 30.24 in Calm   1.0 mph 85 % 0.00 in
08:37 62.4 °F 56.5 °F 30.24 in Calm   1.0 mph 81 % 0.00 in
08:42 63.3 °F 55.2 °F 30.24 in Calm   1.0 mph 75 % 0.00 in
08:47 63.9 °F 55.4 °F 30.24 in Calm   1.0 mph 74 % 0.00 in
08:52 64.8 °F 55.6 °F 30.24 in Calm   1.0 mph 72 % 0.00 in
08:57 65.7 °F 54.9 °F 30.24 in Calm   1.0 mph 68 % 0.00 in
09:02 66.2 °F 55.4 °F 30.24 in ENE 1.0 mph 1.0 mph 68 % 0.00 in
09:07 66.4 °F 54.3 °F 30.24 in North 1.0 mph 1.0 mph 65 % 0.00 in
09:12 66.6 °F 55.2 °F 30.25 in North 1.0 mph 1.0 mph 67 % 0.00 in
09:17 66.6 °F 53.6 °F 30.25 in Calm   1.0 mph 63 % 0.00 in
09:22 66.6 °F 53.6 °F 30.25 in North 2.0 mph 3.0 mph 63 % 0.00 in
09:27 66.9 °F 54.3 °F 30.25 in NNW 1.0 mph 3.0 mph 64 % 0.00 in
09:32 67.5 °F 54.9 °F 30.25 in ENE 2.0 mph 3.0 mph 64 % 0.00 in
09:37 67.5 °F 54.0 °F 30.25 in Calm   3.0 mph 62 % 0.00 in
09:43 68.5 °F 55.0 °F 30.25 in Calm   3.0 mph 62 % 0.00 in
09:48 68.9 °F 54.0 °F 30.25 in NW 2.0 mph 3.0 mph 59 % 0.00 in
09:53 68.4 °F 54.0 °F 30.25 in NW 1.0 mph 4.0 mph 60 % 0.00 in
09:58 68.0 °F 54.5 °F 30.25 in NW 1.0 mph 5.0 mph 62 % 0.00 in
10:03 69.1 °F 55.6 °F 30.25 in NW 1.0 mph 5.0 mph 62 % 0.00 in
10:08 70.2 °F 55.6 °F 30.25 in Calm   5.0 mph 60 % 0.00 in
10:13 70.7 °F 55.2 °F 30.25 in Calm   3.0 mph 58 % 0.00 in
10:14 70.7 °F 55.6 °F 30.26 in WNW 1.0 mph 3.0 mph 59 % 0.00 in
10:19 71.1 °F 56.5 °F 30.26 in South 2.0 mph 3.0 mph 60 % 0.00 in
10:24 71.8 °F 56.1 °F 30.26 in West 1.0 mph 4.0 mph 58 % 0.00 in
10:29 72.5 °F 57.7 °F 30.26 in West 1.0 mph 4.0 mph 60 % 0.00 in
10:31 72.7 °F 57.6 °F 30.26 in WNW 1.0 mph 4.0 mph 59 % 0.00 in
10:36 73.6 °F 57.4 °F 30.26 in South 2.0 mph 4.0 mph 57 % 0.00 in
10:41 74.1 °F 57.9 °F 30.26 in SSW 1.0 mph 3.0 mph 57 % 0.00 in
10:46 74.1 °F 56.8 °F 30.25 in SSE 2.0 mph 5.0 mph 55 % 0.00 in
10:51 73.9 °F 56.3 °F 30.25 in Calm   5.0 mph 54 % 0.00 in
10:56 74.5 °F 57.2 °F 30.25 in SW 3.0 mph 5.0 mph 55 % 0.00 in
11:01 74.5 °F 57.7 °F 30.25 in WSW 2.0 mph 4.0 mph 56 % 0.00 in
11:06 73.9 °F 57.2 °F 30.25 in SSW 1.0 mph 6.0 mph 56 % 0.00 in
11:11 74.1 °F 54.9 °F 30.25 in SSE 1.0 mph 6.0 mph 51 % 0.00 in
11:16 74.7 °F 55.4 °F 30.25 in SE 1.0 mph 6.0 mph 51 % 0.00 in
11:21 74.7 °F 55.4 °F 30.25 in SW 2.0 mph 6.0 mph 51 % 0.00 in
11:26 75.0 °F 55.0 °F 30.25 in Calm   6.0 mph 50 % 0.00 in
11:31 75.4 °F 53.2 °F 30.24 in South 6.0 mph 6.0 mph 46 % 0.00 in
11:36 74.8 °F 54.3 °F 30.24 in ESE 5.0 mph 6.0 mph 49 % 0.00 in
11:41 74.7 °F 53.1 °F 30.24 in Calm   6.0 mph 47 % 0.00 in
11:46 75.0 °F 53.4 °F 30.24 in ESE 4.0 mph 8.0 mph 47 % 0.00 in
11:51 74.8 °F 53.2 °F 30.24 in SE 4.0 mph 8.0 mph 47 % 0.00 in
11:56 74.7 °F 52.5 °F 30.24 in South 2.0 mph 8.0 mph 46 % 0.00 in
12:01 75.4 °F 53.8 °F 30.24 in SSW 1.0 mph 7.0 mph 47 % 0.00 in
12:06 75.7 °F 54.1 °F 30.24 in WNW 2.0 mph 7.0 mph 47 % 0.00 in
12:11 75.9 °F 52.5 °F 30.23 in East 1.0 mph 9.0 mph 44 % 0.00 in
12:16 76.3 °F 52.7 °F 30.23 in SSE 4.0 mph 9.0 mph 44 % 0.00 in
12:21 76.3 °F 52.2 °F 30.23 in SE 3.0 mph 9.0 mph 43 % 0.00 in
12:26 76.5 °F 51.6 °F 30.23 in North 2.0 mph 7.0 mph 42 % 0.00 in
12:27 76.5 °F 52.3 °F 30.22 in Calm   7.0 mph 43 % 0.00 in
12:32 76.8 °F 50.7 °F 30.22 in ESE 3.0 mph 7.0 mph 40 % 0.00 in
12:37 76.3 °F 52.2 °F 30.22 in East 4.0 mph 7.0 mph 43 % 0.00 in
12:42 76.5 °F 52.9 °F 30.22 in SSW 3.0 mph 7.0 mph 44 % 0.00 in
12:47 76.8 °F 50.0 °F 30.22 in Calm   7.0 mph 39 % 0.00 in
12:49 77.0 °F 50.9 °F 30.22 in East 2.0 mph 7.0 mph 40 % 0.00 in
12:54 77.4 °F 52.5 °F 30.22 in Calm   7.0 mph 42 % 0.00 in
12:59 77.4 °F 53.8 °F 30.21 in WSW 1.0 mph 6.0 mph 44 % 0.00 in
13:04 78.4 °F 57.2 °F 30.21 in Calm   6.0 mph 48 % 0.00 in
13:09 79.0 °F 54.0 °F 30.21 in Calm   6.0 mph 42 % 0.00 in
13:14 79.2 °F 52.7 °F 30.20 in SE 2.0 mph 4.0 mph 40 % 0.00 in
13:19 79.0 °F 52.5 °F 30.20 in SSE 5.0 mph 5.0 mph 40 % 0.00 in
13:24 78.6 °F 52.9 °F 30.20 in South 2.0 mph 5.0 mph 41 % 0.00 in
13:29 79.0 °F 54.0 °F 30.19 in South 5.0 mph 5.0 mph 42 % 0.00 in
13:34 79.2 °F 52.7 °F 30.19 in SE 4.0 mph 7.0 mph 40 % 0.00 in
13:39 79.0 °F 50.5 °F 30.19 in SE 5.0 mph 7.0 mph 37 % 0.00 in
13:44 78.6 °F 50.2 °F 30.19 in ESE 2.0 mph 7.0 mph 37 % 0.00 in
13:49 78.6 °F 50.9 °F 30.19 in West 3.0 mph 6.0 mph 38 % 0.00 in
13:54 79.0 °F 51.3 °F 30.19 in SSW 2.0 mph 6.0 mph 38 % 0.00 in
13:59 78.6 °F 50.9 °F 30.19 in West 1.0 mph 8.0 mph 38 % 0.00 in
14:00 78.8 °F 51.1 °F 30.19 in NNE 1.0 mph 8.0 mph 38 % 0.00 in
14:05 79.2 °F 51.4 °F 30.18 in Calm   8.0 mph 38 % 0.00 in
14:10 79.7 °F 53.2 °F 30.18 in SSW 1.0 mph 8.0 mph 40 % 0.00 in
14:15 79.7 °F 51.8 °F 30.18 in ESE 1.0 mph 8.0 mph 38 % 0.00 in
14:21 79.3 °F 50.7 °F 30.18 in SSE 2.0 mph 8.0 mph 37 % 0.00 in
14:26 79.9 °F 50.5 °F 30.18 in ESE 3.0 mph 7.0 mph 36 % 0.00 in
14:31 79.9 °F 50.5 °F 30.17 in SSE 5.0 mph 8.0 mph 36 % 0.00 in
14:36 79.2 °F 50.7 °F 30.17 in East 4.0 mph 9.0 mph 37 % 0.00 in
14:41 79.5 °F 49.5 °F 30.17 in SE 6.0 mph 9.0 mph 35 % 0.00 in
14:46 79.3 °F 49.3 °F 30.17 in South 3.0 mph 9.0 mph 35 % 0.00 in
14:51 79.3 °F 48.6 °F 30.17 in East 3.0 mph 8.0 mph 34 % 0.00 in
14:56 79.9 °F 48.2 °F 30.17 in ESE 6.0 mph 10.0 mph 33 % 0.00 in
15:01 79.5 °F 48.7 °F 30.16 in ESE 2.0 mph 10.0 mph 34 % 0.00 in
15:06 79.7 °F 48.9 °F 30.16 in Calm   10.0 mph 34 % 0.00 in
15:11 79.9 °F 48.9 °F 30.16 in ESE 3.0 mph 7.0 mph 34 % 0.00 in
15:16 80.2 °F 50.2 °F 30.15 in ENE 5.0 mph 6.0 mph 35 % 0.00 in
15:21 80.6 °F 52.0 °F 30.15 in SSW 4.0 mph 5.0 mph 37 % 0.00 in
15:26 80.4 °F 48.7 °F 30.15 in SW 3.0 mph 8.0 mph 33 % 0.00 in
15:31 80.2 °F 49.3 °F 30.15 in SSW 5.0 mph 8.0 mph 34 % 0.00 in
15:36 80.8 °F 52.2 °F 30.14 in SW 4.0 mph 8.0 mph 37 % 0.00 in
15:41 81.1 °F 49.3 °F 30.14 in South 3.0 mph 7.0 mph 33 % 0.00 in
15:46 81.1 °F 49.3 °F 30.14 in WSW 2.0 mph 6.0 mph 33 % 0.00 in
15:51 81.1 °F 50.2 °F 30.14 in SSW 5.0 mph 9.0 mph 34 % 0.00 in
15:56 81.0 °F 48.4 °F 30.13 in East 2.0 mph 9.0 mph 32 % 0.00 in
16:01 81.0 °F 49.1 °F 30.13 in SSE 4.0 mph 9.0 mph 33 % 0.00 in
16:06 80.8 °F 48.9 °F 30.13 in SW 8.0 mph 10.0 mph 33 % 0.00 in
16:11 80.6 °F 48.0 °F 30.13 in SSE 5.0 mph 10.0 mph 32 % 0.00 in
16:16 80.4 °F 49.5 °F 30.12 in Calm   10.0 mph 34 % 0.00 in
16:21 80.6 °F 50.4 °F 30.12 in Calm   9.0 mph 35 % 0.00 in
16:26 81.1 °F 49.3 °F 30.12 in SSE 5.0 mph 7.0 mph 33 % 0.00 in
16:31 80.8 °F 48.2 °F 30.11 in ESE 1.0 mph 7.0 mph 32 % 0.00 in
16:36 80.8 °F 47.3 °F 30.11 in Calm   7.0 mph 31 % 0.00 in
16:41 81.3 °F 50.2 °F 30.11 in NNE 2.0 mph 7.0 mph 34 % 0.00 in
16:46 81.5 °F 48.7 °F 30.10 in SE 4.0 mph 8.0 mph 32 % 0.00 in
16:51 81.1 °F 48.6 °F 30.10 in Calm   8.0 mph 32 % 0.00 in
16:56 80.8 °F 48.9 °F 30.10 in SE 4.0 mph 11.0 mph 33 % 0.00 in
17:01 80.6 °F 48.0 °F 30.10 in South 3.0 mph 11.0 mph 32 % 0.00 in
17:06 80.8 °F 47.3 °F 30.10 in Calm   11.0 mph 31 % 0.00 in
17:11 81.1 °F 47.7 °F 30.10 in SE 6.0 mph 8.0 mph 31 % 0.00 in
17:16 80.8 °F 47.3 °F 30.10 in SE 3.0 mph 9.0 mph 31 % 0.00 in
17:21 80.8 °F 48.9 °F 30.09 in Calm   9.0 mph 33 % 0.00 in
17:26 81.1 °F 49.3 °F 30.09 in Calm   9.0 mph 33 % 0.00 in
17:31 81.3 °F 46.9 °F 30.09 in Calm   6.0 mph 30 % 0.00 in
17:36 81.3 °F 48.6 °F 30.09 in Calm   4.0 mph 32 % 0.00 in
17:41 81.5 °F 48.0 °F 30.09 in SSE 1.0 mph 7.0 mph 31 % 0.00 in
17:46 81.5 °F 49.6 °F 30.09 in SSE 2.0 mph 7.0 mph 33 % 0.00 in
17:51 81.5 °F 48.7 °F 30.09 in SW 5.0 mph 7.0 mph 32 % 0.00 in
17:56 80.4 °F 50.2 °F 30.09 in SSW 3.0 mph 7.0 mph 35 % 0.00 in
18:01 79.9 °F 48.9 °F 30.09 in SW 3.0 mph 6.0 mph 34 % 0.00 in
18:06 79.7 °F 48.9 °F 30.09 in WSW 2.0 mph 6.0 mph 34 % 0.00 in
18:11 80.1 °F 49.1 °F 30.09 in SSW 2.0 mph 6.0 mph 34 % 0.00 in
18:16 79.9 °F 49.8 °F 30.09 in SSE 2.0 mph 6.0 mph 35 % 0.00 in
18:21 79.9 °F 48.9 °F 30.09 in South 3.0 mph 3.0 mph 34 % 0.00 in
18:27 79.5 °F 47.8 °F 30.09 in SSW 1.0 mph 7.0 mph 33 % 0.00 in
18:32 79.2 °F 49.1 °F 30.09 in South 2.0 mph 7.0 mph 35 % 0.00 in
18:37 78.8 °F 48.0 °F 30.09 in SW 2.0 mph 7.0 mph 34 % 0.00 in
18:42 78.6 °F 48.7 °F 30.09 in SSW 2.0 mph 7.0 mph 35 % 0.00 in
18:47 78.6 °F 48.7 °F 30.09 in South 2.0 mph 7.0 mph 35 % 0.00 in
18:52 78.6 °F 47.8 °F 30.09 in SSW 2.0 mph 6.0 mph 34 % 0.00 in
18:57 78.6 °F 47.8 °F 30.09 in South 1.0 mph 5.0 mph 34 % 0.00 in
19:02 78.6 °F 47.8 °F 30.09 in SSW 2.0 mph 4.0 mph 34 % 0.00 in
19:07 78.6 °F 48.7 °F 30.09 in SSW 2.0 mph 4.0 mph 35 % 0.00 in
19:12 78.3 °F 48.4 °F 30.09 in SSW 2.0 mph 3.0 mph 35 % 0.00 in
19:17 77.7 °F 50.0 °F 30.09 in SSE 1.0 mph 3.0 mph 38 % 0.00 in
19:22 77.2 °F 52.3 °F 30.09 in SE 1.0 mph 4.0 mph 42 % 0.00 in
19:27 76.8 °F 53.2 °F 30.09 in SSE 3.0 mph 7.0 mph 44 % 0.00 in
19:32 76.3 °F 54.0 °F 30.09 in SE 2.0 mph 7.0 mph 46 % 0.00 in
19:37 75.7 °F 54.1 °F 30.09 in ESE 3.0 mph 7.0 mph 47 % 0.00 in
19:42 75.2 °F 54.7 °F 30.09 in East 1.0 mph 5.0 mph 49 % 0.00 in
19:47 74.8 °F 54.3 °F 30.09 in ESE 1.0 mph 5.0 mph 49 % 0.00 in
19:52 74.5 °F 54.7 °F 30.09 in Calm   5.0 mph 50 % 0.00 in
19:57 73.9 °F 54.7 °F 30.09 in ESE 4.0 mph 5.0 mph 51 % 0.00 in
20:02 73.8 °F 55.0 °F 30.09 in ESE 2.0 mph 6.0 mph 52 % 0.00 in
20:07 73.4 °F 54.7 °F 30.09 in SE 2.0 mph 6.0 mph 52 % 0.00 in
20:12 73.2 °F 55.0 °F 30.09 in SSE 2.0 mph 6.0 mph 53 % 0.00 in
20:17 73.0 °F 54.9 °F 30.09 in ESE 3.0 mph 6.0 mph 53 % 0.00 in
20:22 72.9 °F 55.2 °F 30.09 in SE 3.0 mph 6.0 mph 54 % 0.00 in
20:27 72.5 °F 53.4 °F 30.09 in SE 3.0 mph 6.0 mph 51 % 0.00 in
20:37 72.1 °F 52.5 °F 30.10 in SSW 3.0 mph 6.0 mph 50 % 0.00 in
20:42 72.0 °F 51.8 °F 30.10 in SSW 3.0 mph 6.0 mph 49 % 0.00 in
20:47 72.0 °F 52.3 °F 30.10 in SSE 2.0 mph 6.0 mph 50 % 0.00 in
20:52 71.6 °F 52.0 °F 30.10 in South 2.0 mph 6.0 mph 50 % 0.00 in
21:02 71.1 °F 50.4 °F 30.11 in SSW 3.0 mph 8.0 mph 48 % 0.00 in
21:07 71.1 °F 50.9 °F 30.11 in South 1.0 mph 8.0 mph 49 % 0.00 in
21:12 70.9 °F 50.7 °F 30.11 in SSW 2.0 mph 8.0 mph 49 % 0.00 in
21:17 70.5 °F 50.4 °F 30.11 in SW 4.0 mph 6.0 mph 49 % 0.00 in
21:22 70.7 °F 50.0 °F 30.11 in SSW 7.0 mph 7.0 mph 48 % 0.00 in
21:28 70.5 °F 49.8 °F 30.11 in South 5.0 mph 9.0 mph 48 % 0.00 in
21:33 70.3 °F 49.6 °F 30.12 in SSW 3.0 mph 9.0 mph 48 % 0.00 in
21:38 70.2 °F 49.6 °F 30.12 in South 3.0 mph 9.0 mph 48 % 0.00 in
21:43 70.2 °F 49.6 °F 30.12 in ESE 2.0 mph 8.0 mph 48 % 0.00 in
21:48 70.0 °F 50.0 °F 30.12 in SSE 1.0 mph 8.0 mph 49 % 0.00 in
21:53 69.6 °F 49.6 °F 30.12 in SSW 2.0 mph 8.0 mph 49 % 0.00 in
21:54 69.6 °F 49.6 °F 30.12 in SSE 1.0 mph 8.0 mph 49 % 0.00 in
21:59 69.6 °F 49.6 °F 30.13 in South 3.0 mph 7.0 mph 49 % 0.00 in
22:04 69.4 °F 49.5 °F 30.13 in SSE 2.0 mph 6.0 mph 49 % 0.00 in
22:09 69.3 °F 49.8 °F 30.13 in South 2.0 mph 5.0 mph 50 % 0.00 in
22:14 68.9 °F 49.5 °F 30.13 in SW 4.0 mph 5.0 mph 50 % 0.00 in
22:19 68.7 °F 49.8 °F 30.13 in SSW 2.0 mph 6.0 mph 51 % 0.00 in
22:24 68.5 °F 49.6 °F 30.13 in Calm   6.0 mph 51 % 0.00 in
22:29 68.4 °F 50.0 °F 30.13 in South 3.0 mph 6.0 mph 52 % 0.00 in
22:34 68.2 °F 49.8 °F 30.13 in SSW 2.0 mph 6.0 mph 52 % 0.00 in
22:39 68.0 °F 49.6 °F 30.13 in South 3.0 mph 6.0 mph 52 % 0.00 in
22:44 67.8 °F 50.0 °F 30.12 in South 2.0 mph 6.0 mph 53 % 0.00 in
22:49 67.6 °F 50.4 °F 30.12 in SSW 2.0 mph 6.0 mph 54 % 0.00 in
22:54 67.5 °F 50.2 °F 30.12 in South 3.0 mph 6.0 mph 54 % 0.00 in
22:59 67.5 °F 50.7 °F 30.12 in SW 4.0 mph 6.0 mph 55 % 0.00 in
23:04 67.3 °F 51.1 °F 30.12 in South 3.0 mph 6.0 mph 56 % 0.00 in
23:14 66.9 °F 51.3 °F 30.12 in South 3.0 mph 6.0 mph 57 % 0.00 in
23:19 66.9 °F 51.6 °F 30.12 in SSE 2.0 mph 6.0 mph 58 % 0.00 in
23:24 66.7 °F 51.4 °F 30.12 in SE 1.0 mph 6.0 mph 58 % 0.00 in
23:29 66.6 °F 51.8 °F 30.12 in SSE 2.0 mph 6.0 mph 59 % 0.00 in
23:34 66.6 °F 51.8 °F 30.12 in SSW 2.0 mph 6.0 mph 59 % 0.00 in
23:39 66.2 °F 52.0 °F 30.12 in SSW 1.0 mph 6.0 mph 60 % 0.00 in
23:44 66.0 °F 52.2 °F 30.12 in SSW 1.0 mph 5.0 mph 61 % 0.00 in
23:49 65.8 °F 52.0 °F 30.11 in South 2.0 mph 5.0 mph 61 % 0.00 in
23:54 65.7 °F 52.3 °F 30.11 in South 2.0 mph 4.0 mph 62 % 0.00 in
23:59 65.5 °F 52.2 °F 30.11 in SSE 1.0 mph 4.0 mph 62 % 0.00 in
Spring, Texas: Villages of Bridgestone
Compliments of Weather Underground - 2.75 mb

Script developed by  Jim McMurry - jmcmurry@mwt.net Adapted for the template by  Wim van der Kuil - Leuven-Template.eu

You find our weather info also at:

UK Metoffice

WeatherCloud

Weather Underground

Mid-South Weather Network

AWEKAS

Citizen Weather Observer Program (CWOP)

HAMweather, WeatherForYou, PWS Weather

Equipment we use:

Weather-station
Davis Vantage Vue

Weather-program
Meteohub

Weather-server
Debian 7.9 x86 (Guest)

Provider
DreamHost

Davis Vantage Vue

Meteohub

Debian 7.9 x86 (Guest)

DreamHost